Barberà del Vallès, Spain

7:58 PM CET on January 25, 2015 (GMT +0100)
Bellaterra | Change Station
CLOSE
Current Station
Personal Weather Station
Location: Sardañola Del Vallés, CATALUñA
Elevation: 512 ft
Nearby Weather Stations
Active Advisory: Wind

Elev 512 ft 41.50 °N, 2.09 °E | Updated 23 seconds ago

Clear
Clear
48.9 °F
Feels Like 49 °F
N
2.5
Wind Variable Wind from SSW
Gusts 4.9 mph

Today
High -- | Low -- °F
--% Chance of Precip.
Yesterday
High -- | Low -- °F
Precip. -- in
8:09 AM 5:58 PM
Waxing Crescent, 34% visible
Pressure 30.18 in
Visibility -9999.0 miles
Clouds
Windchill 49 °F
Dew Point 32 °F
Humidity 51%
Rainfall 0.00 in
Snow Depth Not available.
UV 0.0 out of 12
Pollen Not available.
Air Quality Not available.
Flu Activity Not available.
METAR LEBL 251830Z 27006KT 250V310 CAVOK 11/M01 Q1022 NOSIG

More Conditions Fewer Conditions

Pressure 30.18 in
Visibility -9999.0 miles
Clouds
Windchill 49 °F
Dew Point 32 °F
Humidity 51%
Rainfall 0.00 in
Snow Depth Not available.
UV 0.0 out of 12
Pollen Not available.
Air Quality Not available.
Flu Activity Not available.
METAR LEBL 251830Z 27006KT 250V310 CAVOK 11/M01 Q1022 NOSIG

More Conditions Fewer Conditions

10-Day Weather Forecast

Almanac

Astronomy

Jan. 25, 2015 Rise Set
Actual Time
Civil Twilight
Nautical Twilight
Astronomical Twilight
Moon
Length of Visible Light
Length of Day
Tomorrow will be .
, % of the Moon is Illuminated

Today's Extremes

Country Highs Country Lows

Community

WunderPhotos

Upload Photos

1,790,017 photos uploaded!

WunderBlogs® & News

Nearby

Air Quality

  Air Quality AQ Index Pollutant
Not available.

Snow Depth

Station Depth Elevation

Earthquake Activity

City Distance Mag. Time & Date
Minimum magnitude displayed is 2.5.

Coastal Water Temperatures

Place Temperature

Nearby Weather Stations